福島 の空港の天気 - METARとTAF

福島空港 ( RJSF / FKS ) - 福島県玉川村
飛行場実況気象(Metar)
観測時間06/04 20:00 JST (06/04 11:00 UTC)
風向・風速南南東 4m/s
視程10km以上
天気現象
少しの雲 雲底高度 1220m
気温21℃
湿度100%
気圧1006hPa
METARRJSF 041100Z 16007KT 9999 FEW040 BKN/// 21/21 Q1006
過去の天気等 Google飛行場航空写真 Wunderground天気予報

過去48時間のMETAR

飛行場予報(TAF)
発表時間: 6/05 02:05 JST (6/04 17:05 UTC)
予報対象時間: 5日3時 JST ~ 6日9時 JST
風向・風速南東 3m/s
視程1500m
天気現象もや
少しの雲 雲底高度 60m
全天の8割程度の雲 雲底高度 150m
5日3時 JST ~ 5日7時 JST に一時的に
視程500m
天気現象
全天を覆う雲 鉛直視程 30m
5日7時 JST ~ 5日9時 JST に徐々に
視程10km以上
天気現象運行に影響にある天気現象が終了
少しの雲 雲底高度 610m
全天の4割程度の雲 雲底高度 1220m
5日12時 JST ~ 5日18時 JST に一時的に
視程3000m
天気現象雷雨 もや
少しの雲 雲底高度 150m
全天の4割程度の雲 雲底高度 300m
全天の8割程度の雲 雲底高度 610m
少しの積乱雲 雲底高度 610m
5日15時 JST ~ 5日18時 JST に徐々に
風向・風速北 4m/s
TAF RJSF 041705Z 0418/0600 14005KT 1500 BR FEW002 BKN005
TEMPO 0418/0422 0500 FG VV001
BECMG 0422/0500 9999 NSW FEW020 SCT040
TEMPO 0503/0509 3000 TSRA BR FEW005 SCT010 BKN020 FEW020CB
BECMG 0506/0509 36007KT
日本の空港のMETAR・TAFへのリンク

RJTT 東京国際空港
RJAA 新東京国際空港
RJBB 関西国際空港
RJOO 大阪空港
RJGG 中部国際空港
RJCC 新千歳空港
RJFF 福岡空港
ROAH 那覇空港


RJEC 旭川空港
RJCH 函館空港
RJCK 釧路空港
RJCM 女満別空港
RJCB 帯広空港
RJSA 青森空港
RJSS 仙台空港
RJSK 秋田空港
RJSF 福島空港
RJAH 茨城空港
RJSN 新潟空港
RJNT 富山空港
RJNK 小松飛行場
RJNS 静岡空港
RJOH 美保飛行場
RJOC 出雲空港
RJOB 岡山空港
RJOA 広島空港
RJOI 岩国飛行場
RJOT 高松空港
RJOM 松山空港
RJOK 高知空港
RJFR 北九州空港
RJFT 熊本空港
RJFU 長崎空港
RJFS 佐賀空港
RJFO 大分空港
RJFM 宮崎空港
RJFK 鹿児島空港
ROIG 石垣島空港
RJTY 横田飛行場
ROTM 普天間飛行場
RODN 嘉手納飛行場